Time;durP1;ratioP1;P1;durP2;ratioP2;P2;SDS_P1;SDS_P2;PMS_P1;PMS_P2;Temp;Humidity;BMP_temperature;BMP_pressure;BME280_temperature;BME280_humidity;BME280_pressure;Samples;Min_cycle;Max_cycle;Signal;HPM_P1;HPM_P2
2021/05/09 00:00:48;;;;;;;7.40;3.17;;;;;;;12.88;72.58;100414.75;5016800;28;20049;-66
2021/05/09 00:03:14;;;;;;;9.70;3.33;;;;;;;12.84;72.51;100411.41;5020848;28;23546;-67
2021/05/09 00:05:40;;;;;;;4.53;2.38;;;;;;;12.84;72.90;100410.53;5014596;28;20092;-66
2021/05/09 00:08:06;;;;;;;6.22;2.63;;;;;;;12.81;72.55;100416.72;5026284;28;20041;-67
2021/05/09 00:10:32;;;;;;;6.90;3.40;;;;;;;12.83;72.75;100409.69;5021873;28;20065;-67
2021/05/09 00:12:58;;;;;;;5.88;2.33;;;;;;;12.79;72.41;100400.25;5022823;28;20046;-67
2021/05/09 00:15:26;;;;;;;6.68;2.42;;;;;;;12.75;72.63;100401.25;5016503;28;20492;-67
2021/05/09 00:17:52;;;;;;;5.82;2.53;;;;;;;12.74;72.76;100395.19;5020486;28;20045;-67
2021/05/09 00:20:20;;;;;;;6.80;2.35;;;;;;;12.77;72.71;100395.97;5022296;28;20501;-67
2021/05/09 00:22:46;;;;;;;7.70;2.50;;;;;;;12.81;72.58;100406.25;5020820;28;20049;-67
2021/05/09 00:25:13;;;;;;;5.63;2.53;;;;;;;12.77;72.67;100394.25;5018496;28;20046;-66
2021/05/09 00:27:40;;;;;;;5.97;2.20;;;;;;;12.74;72.71;100403.00;5023362;28;20060;-67
2021/05/09 00:30:08;;;;;;;8.68;2.78;;;;;;;12.75;72.82;100398.66;5027234;28;20052;-65
2021/05/09 00:32:35;;;;;;;5.00;2.38;;;;;;;12.70;72.72;100388.38;5018232;28;20049;-67
2021/05/09 00:35:01;;;;;;;5.28;2.50;;;;;;;12.72;72.95;100385.69;5016471;28;20069;-66
2021/05/09 00:37:27;;;;;;;7.80;2.63;;;;;;;12.70;73.15;100388.38;5022097;28;20050;-66
2021/05/09 00:39:53;;;;;;;6.78;2.50;;;;;;;12.65;73.08;100382.44;5019193;28;20108;-67
2021/05/09 00:42:19;;;;;;;6.38;2.55;;;;;;;12.64;73.14;100387.72;5024669;28;20045;-66
2021/05/09 00:44:45;;;;;;;6.85;2.83;;;;;;;12.62;73.26;100379.97;5017073;28;20050;-67
2021/05/09 00:47:12;;;;;;;5.55;2.40;;;;;;;12.65;73.22;100379.84;5020151;28;20180;-65
2021/05/09 00:49:41;;;;;;;5.78;2.22;;;;;;;12.62;73.06;100379.97;5023068;28;20053;-67
2021/05/09 00:52:08;;;;;;;8.43;2.30;;;;;;;12.64;73.42;100377.28;5027600;28;20037;-67
2021/05/09 00:54:35;;;;;;;5.88;2.45;;;;;;;12.64;73.36;100372.91;5027779;28;20050;-67
2021/05/09 00:57:03;;;;;;;4.95;2.67;;;;;;;12.59;73.28;100375.66;5029782;28;20525;-67
2021/05/09 00:59:33;;;;;;;8.43;2.88;;;;;;;12.57;73.31;100367.06;5023471;28;20063;-67
2021/05/09 01:01:59;;;;;;;6.13;3.08;;;;;;;12.58;73.10;100371.34;5020441;28;20053;-68
2021/05/09 01:04:25;;;;;;;5.95;2.67;;;;;;;12.57;72.91;100376.63;5026378;28;20096;-67
2021/05/09 01:06:52;;;;;;;7.75;2.38;;;;;;;12.52;73.43;100368.13;5027574;28;20104;-67
2021/05/09 01:09:19;;;;;;;6.78;2.97;;;;;;;12.53;73.37;100364.59;5022548;28;20206;-67
2021/05/09 01:11:45;;;;;;;5.65;2.50;;;;;;;12.48;73.20;100356.06;5018357;28;20053;-68
2021/05/09 01:14:11;;;;;;;5.25;2.47;;;;;;;12.57;73.22;100360.97;5032105;28;20045;-67
2021/05/09 01:16:37;;;;;;;5.07;2.45;;;;;;;12.52;73.45;100352.47;5021279;28;20056;-66
2021/05/09 01:19:04;;;;;;;6.07;2.53;;;;;;;12.47;73.42;100355.22;5024998;28;20038;-67
2021/05/09 01:21:30;;;;;;;4.90;2.40;;;;;;;12.46;73.21;100345.69;5022696;28;20058;-66
2021/05/09 01:23:57;;;;;;;5.50;2.33;;;;;;;12.46;73.22;100347.44;5021628;28;20053;-67
2021/05/09 01:26:23;;;;;;;7.68;2.63;;;;;;;12.49;72.97;100342.13;5025819;28;20049;-67
2021/05/09 01:28:49;;;;;;;8.80;2.53;;;;;;;12.49;72.86;100335.13;5025835;28;20208;-67
2021/05/09 01:31:15;;;;;;;6.03;2.40;;;;;;;12.58;72.79;100345.25;5017801;28;20053;-68
2021/05/09 01:33:41;;;;;;;6.03;2.80;;;;;;;12.50;72.97;100341.22;5018945;28;20092;-67
2021/05/09 01:36:07;;;;;;;6.40;2.72;;;;;;;12.48;72.85;100345.63;5025981;28;20601;-67
2021/05/09 01:38:34;;;;;;;5.82;2.35;;;;;;;12.46;72.82;100331.78;5023786;28;20081;-68
2021/05/09 01:41:00;;;;;;;5.03;2.28;;;;;;;12.53;72.72;100328.94;5024228;28;20045;-64
2021/05/09 01:43:26;;;;;;;6.70;2.30;;;;;;;12.46;72.74;100330.06;5027303;28;20498;-67
2021/05/09 01:45:52;;;;;;;5.15;2.28;;;;;;;12.53;72.72;100330.66;5023134;28;20042;-67
2021/05/09 01:48:18;;;;;;;6.38;2.53;;;;;;;12.43;72.80;100322.31;5028202;28;20053;-68
2021/05/09 01:50:44;;;;;;;6.95;2.30;;;;;;;12.43;72.87;100317.94;5016830;28;20511;-66
2021/05/09 01:53:10;;;;;;;5.32;2.13;;;;;;;12.43;72.79;100319.72;5013233;28;20099;-68
2021/05/09 01:55:36;;;;;;;6.18;2.58;;;;;;;12.44;72.55;100314.44;5024292;28;20123;-66
2021/05/09 01:58:02;;;;;;;5.60;2.25;;;;;;;12.43;72.60;100312.72;5026599;28;20141;-68
2021/05/09 02:00:28;;;;;;;4.32;2.42;;;;;;;12.37;72.92;100306.88;5017598;28;20426;-67
2021/05/09 02:02:54;;;;;;;8.82;2.10;;;;;;;12.38;72.87;100303.34;5020173;28;20045;-67
2021/05/09 02:05:20;;;;;;;8.20;2.70;;;;;;;12.37;73.17;100302.50;5025865;28;20045;-67
2021/05/09 02:07:46;;;;;;;5.47;2.20;;;;;;;12.36;72.48;100306.00;5026848;28;20849;-67
2021/05/09 02:10:13;;;;;;;8.75;2.25;;;;;;;12.40;72.85;100296.31;5020272;28;20049;-67
2021/05/09 02:12:40;;;;;;;10.32;2.97;;;;;;;12.33;72.68;100294.84;5025934;28;20173;-63
2021/05/09 02:15:07;;;;;;;5.68;2.65;;;;;;;12.35;72.62;100293.88;5029928;28;20495;-66
2021/05/09 02:17:33;;;;;;;6.35;2.47;;;;;;;12.39;72.38;100284.19;5021498;28;20049;-65
2021/05/09 02:19:59;;;;;;;6.45;2.78;;;;;;;12.39;72.04;100290.28;5021499;28;20067;-66
2021/05/09 02:22:26;;;;;;;9.80;3.17;;;;;;;12.42;72.02;100282.34;5020496;28;20045;-66
2021/05/09 02:24:52;;;;;;;5.65;2.15;;;;;;;12.40;71.92;100281.53;5022503;28;20049;-65
2021/05/09 02:27:18;;;;;;;8.40;3.38;;;;;;;12.41;71.41;100282.38;5019383;28;20752;-66
2021/05/09 02:29:45;;;;;;;6.47;2.45;;;;;;;12.42;71.56;100274.53;5019009;28;20399;-67
2021/05/09 02:32:11;;;;;;;6.45;2.42;;;;;;;12.38;71.63;100278.13;5021950;28;20046;-67
2021/05/09 02:34:37;;;;;;;8.90;2.78;;;;;;;12.35;71.78;100273.00;5016176;28;20095;-67
2021/05/09 02:37:04;;;;;;;6.70;3.10;;;;;;;12.42;71.42;100263.22;5016873;28;20571;-67
2021/05/09 02:39:30;;;;;;;7.65;2.88;;;;;;;12.46;70.77;100263.97;5021445;28;20080;-68
2021/05/09 02:41:56;;;;;;;5.53;2.28;;;;;;;12.37;71.12;100255.56;5023622;28;20056;-67
2021/05/09 02:44:22;;;;;;;5.60;2.40;;;;;;;12.33;71.21;100259.16;5023055;28;20041;-67
2021/05/09 02:46:49;;;;;;;6.63;2.70;;;;;;;12.31;71.17;100261.00;5020341;28;20125;-67
2021/05/09 02:49:15;;;;;;;5.43;2.53;;;;;;;12.26;71.50;100270.72;5026986;28;20076;-65
2021/05/09 02:51:41;;;;;;;5.13;2.13;;;;;;;12.27;71.47;100270.69;5026351;28;20056;-67
2021/05/09 02:54:07;;;;;;;5.18;2.10;;;;;;;12.25;71.67;100266.41;5018277;28;20137;-66
2021/05/09 02:56:33;;;;;;;9.15;2.13;;;;;;;12.22;71.28;100271.75;5023122;28;20041;-65
2021/05/09 02:58:59;;;;;;;6.60;3.03;;;;;;;12.21;71.70;100270.03;5022808;28;20400;-65
2021/05/09 03:01:25;;;;;;;5.80;2.70;;;;;;;12.18;71.78;100257.94;5018208;28;20064;-67
2021/05/09 03:03:51;;;;;;;7.00;2.45;;;;;;;12.11;71.65;100262.53;5024743;28;20099;-67
2021/05/09 03:06:17;;;;;;;5.15;2.38;;;;;;;12.13;71.73;100258.09;5020539;28;20045;-67
2021/05/09 03:08:44;;;;;;;8.30;2.65;;;;;;;12.09;71.52;100272.16;5025715;28;20191;-65
2021/05/09 03:11:09;;;;;;;5.28;2.30;;;;;;;12.12;71.68;100269.44;5019685;28;20561;-67
2021/05/09 03:13:35;;;;;;;5.35;2.45;;;;;;;12.02;72.03;100261.97;5015511;28;20057;-67
2021/05/09 03:16:02;;;;;;;6.55;2.42;;;;;;;12.03;72.02;100261.91;5018910;28;20566;-67
2021/05/09 03:18:29;;;;;;;5.50;2.78;;;;;;;12.01;72.13;100253.31;5028073;28;20206;-66
2021/05/09 03:20:56;;;;;;;4.78;2.47;;;;;;;11.95;71.95;100249.09;5019328;28;20084;-66
2021/05/09 03:23:22;;;;;;;4.35;2.50;;;;;;;11.93;72.14;100244.81;5022562;28;20049;-67
2021/05/09 03:25:48;;;;;;;6.72;2.40;;;;;;;11.93;72.07;100243.09;5023636;28;20041;-67
2021/05/09 03:28:14;;;;;;;6.63;2.55;;;;;;;11.92;72.05;100244.00;5025222;28;20045;-67
2021/05/09 03:30:40;;;;;;;5.13;2.47;;;;;;;11.88;72.05;100241.53;5013937;28;20467;-67
2021/05/09 03:33:07;;;;;;;5.35;2.45;;;;;;;11.89;72.20;100238.03;5021255;28;20510;-66
2021/05/09 03:35:34;;;;;;;7.47;3.15;;;;;;;11.87;72.09;100250.25;5023897;28;20498;-66
2021/05/09 03:38:01;;;;;;;5.13;2.28;;;;;;;11.90;72.24;100252.75;5022861;28;20176;-66
2021/05/09 03:40:28;;;;;;;5.10;2.60;;;;;;;11.92;71.92;100245.75;5018127;28;20529;-67
2021/05/09 03:42:54;;;;;;;6.00;2.45;;;;;;;11.86;72.06;100244.19;5020342;28;20057;-68
2021/05/09 03:45:20;;;;;;;4.68;2.28;;;;;;;11.83;72.18;100247.72;5015919;28;20463;-66
2021/05/09 03:47:46;;;;;;;5.45;2.40;;;;;;;11.81;72.38;100262.59;5025899;28;20079;-66
2021/05/09 03:50:12;;;;;;;5.40;2.42;;;;;;;11.80;72.40;100266.09;5019245;28;20042;-66
2021/05/09 03:52:38;;;;;;;5.47;2.80;;;;;;;11.77;72.83;100253.16;5020667;28;20050;-68
2021/05/09 03:55:07;;;;;;;5.38;2.30;;;;;;;11.75;72.80;100257.56;5019949;28;20073;-68
2021/05/09 03:57:33;;;;;;;5.93;2.55;;;;;;;11.71;73.03;100255.97;5021846;28;20199;-66
2021/05/09 03:59:59;;;;;;;5.07;2.50;;;;;;;11.71;73.14;100248.16;5022452;28;20514;-68
2021/05/09 04:02:25;;;;;;;6.38;2.50;;;;;;;11.72;73.18;100251.59;5009966;28;20053;-65
2021/05/09 04:04:51;;;;;;;4.80;2.50;;;;;;;11.74;73.19;100241.97;5021101;28;20414;-68
2021/05/09 04:07:17;;;;;;;5.88;2.60;;;;;;;11.77;72.78;100245.34;5026153;28;20045;-67
2021/05/09 04:09:43;;;;;;;5.88;2.70;;;;;;;11.84;72.57;100243.38;5019850;28;20076;-66
2021/05/09 04:12:11;;;;;;;6.45;2.80;;;;;;;11.87;72.54;100237.22;5017927;28;20076;-67
2021/05/09 04:14:37;;;;;;;6.13;2.60;;;;;;;11.92;72.32;100228.34;5015053;28;20050;-67
2021/05/09 04:17:03;;;;;;;6.97;2.25;;;;;;;12.20;71.35;100235.28;5014271;28;20576;-68
2021/05/09 04:19:29;;;;;;;6.40;2.63;;;;;;;12.24;71.18;100223.84;5014059;28;20510;-69
2021/05/09 04:21:54;;;;;;;8.02;2.75;;;;;;;12.33;70.98;100230.47;5011397;28;20054;-67
2021/05/09 04:24:22;;;;;;;7.25;2.45;;;;;;;12.40;70.78;100229.38;5018108;28;20048;-68
2021/05/09 04:26:48;;;;;;;7.57;2.78;;;;;;;12.47;70.75;100224.81;5022628;28;20076;-70
2021/05/09 04:29:15;;;;;;;6.28;2.72;;;;;;;12.55;70.57;100216.69;5019526;28;20085;-68
2021/05/09 04:31:41;;;;;;;5.57;2.70;;;;;;;12.65;70.12;100215.44;5016022;28;20108;-69
2021/05/09 04:34:07;;;;;;;7.80;3.10;;;;;;;12.68;70.13;100207.50;5022629;28;20048;-68
2021/05/09 04:36:33;;;;;;;6.55;2.95;;;;;;;12.70;69.74;100202.22;5024231;28;20515;-68
2021/05/09 04:38:59;;;;;;;6.78;2.88;;;;;;;12.71;70.05;100211.75;5024472;28;20056;-69
2021/05/09 04:41:25;;;;;;;7.93;2.90;;;;;;;12.75;69.73;100203.75;5027065;28;20083;-68
2021/05/09 04:43:51;;;;;;;5.57;3.15;;;;;;;12.78;69.97;100207.19;5025150;28;20100;-70
2021/05/09 04:46:17;;;;;;;9.25;3.50;;;;;;;12.93;69.46;100211.81;5021588;28;20466;-67
2021/05/09 04:48:43;;;;;;;6.93;3.30;;;;;;;13.09;68.76;100198.19;5029100;28;20096;-68
2021/05/09 04:51:09;;;;;;;8.70;3.00;;;;;;;13.22;68.59;100207.25;5020211;28;20487;-69
2021/05/09 04:53:37;;;;;;;8.77;3.30;;;;;;;13.31;67.84;100203.41;5027541;28;20068;-68
2021/05/09 04:56:06;;;;;;;6.70;3.05;;;;;;;13.34;67.81;100195.47;5021142;28;20067;-69
2021/05/09 04:58:33;;;;;;;7.05;2.80;;;;;;;13.34;67.80;100198.09;5020377;28;20450;-67
2021/05/09 05:01:00;;;;;;;6.78;2.97;;;;;;;13.35;68.10;100198.00;5020778;28;20064;-68
2021/05/09 05:03:27;;;;;;;6.38;2.80;;;;;;;13.33;68.10;100202.44;5022684;28;20553;-68
2021/05/09 05:05:53;;;;;;;5.22;3.00;;;;;;;13.33;67.93;100197.22;5025381;28;20053;-66
2021/05/09 05:08:19;;;;;;;7.07;2.65;;;;;;;13.36;68.06;100196.28;5026976;28;20046;-68
2021/05/09 05:10:46;;;;;;;6.00;2.47;;;;;;;13.37;68.01;100190.97;5025982;28;20121;-67
2021/05/09 05:13:20;;;;;;;6.50;2.42;;;;;;;13.34;68.06;100196.31;5019243;28;20050;-67
2021/05/09 05:15:47;;;;;;;4.30;2.10;;;;;;;13.41;67.91;100189.13;5015969;28;20045;-68
2021/05/09 05:18:13;;;;;;;4.75;2.30;;;;;;;13.36;67.90;100189.28;5021833;28;20514;-67
2021/05/09 05:20:40;;;;;;;4.75;2.38;;;;;;;13.37;67.84;100197.97;5020793;28;20063;-67
2021/05/09 05:23:06;;;;;;;9.38;2.47;;;;;;;13.38;67.74;100195.28;5023223;28;20041;-69
2021/05/09 05:25:32;;;;;;;5.43;2.67;;;;;;;13.30;68.26;100194.75;5025102;28;20041;-67
2021/05/09 05:28:00;;;;;;;5.55;2.38;;;;;;;13.30;68.37;100199.97;5022319;28;20418;-68
2021/05/09 05:30:26;;;;;;;5.50;2.53;;;;;;;13.26;68.26;100195.78;5019091;28;20045;-69
2021/05/09 05:32:52;;;;;;;5.13;2.33;;;;;;;13.36;68.20;100199.72;5025161;28;20057;-68
2021/05/09 05:35:18;;;;;;;6.95;3.08;;;;;;;13.46;67.91;100195.03;5025677;28;20519;-68
2021/05/09 05:37:45;;;;;;;9.77;2.50;;;;;;;13.84;67.02;100191.75;5020548;28;20062;-68
2021/05/09 05:40:12;;;;;;;7.60;3.10;;;;;;;14.36;65.96;100191.31;5022334;28;20050;-71
2021/05/09 05:42:38;;;;;;;7.55;2.95;;;;;;;14.75;63.66;100186.97;5019549;28;20510;-68
2021/05/09 05:45:05;;;;;;;7.68;2.67;;;;;;;14.99;62.52;100187.63;5029282;28;20150;-70
2021/05/09 05:47:31;;;;;;;7.32;2.53;;;;;;;15.23;62.42;100188.22;5023335;28;20507;-67
2021/05/09 05:49:58;;;;;;;6.25;2.47;;;;;;;15.62;60.95;100191.63;5026231;28;20108;-68
2021/05/09 05:52:24;;;;;;;6.47;2.58;;;;;;;15.85;60.38;100190.50;5025542;28;20057;-68
2021/05/09 05:54:50;;;;;;;5.75;2.30;;;;;;;16.22;59.58;100192.22;5025929;28;20064;-69
2021/05/09 05:57:16;;;;;;;5.75;2.40;;;;;;;16.54;58.36;100187.03;5023838;28;20534;-70
2021/05/09 05:59:42;;;;;;;8.75;2.25;;;;;;;16.77;57.76;100183.16;5023908;28;20616;-68
2021/05/09 06:02:08;;;;;;;5.57;2.35;;;;;;;17.04;56.34;100186.09;5018271;28;20046;-69
2021/05/09 06:04:34;;;;;;;7.32;2.47;;;;;;;17.07;56.33;100172.81;5020082;28;20049;-68
2021/05/09 06:07:00;;;;;;;5.20;2.10;;;;;;;17.12;55.64;100180.44;5020644;28;20041;-69
2021/05/09 06:09:26;;;;;;;5.95;1.92;;;;;;;17.19;55.53;100187.03;5022091;28;20068;-69
2021/05/09 06:11:53;;;;;;;4.68;2.13;;;;;;;17.27;55.58;100181.34;5019841;28;20491;-68
2021/05/09 06:14:19;;;;;;;9.55;1.95;;;;;;;17.40;55.58;100171.84;5024195;28;20099;-68
2021/05/09 06:16:45;;;;;;;5.90;2.08;;;;;;;17.56;55.31;100181.47;5024918;28;20045;-68
2021/05/09 06:19:10;;;;;;;6.28;2.10;;;;;;;17.71;54.00;100180.59;5019855;28;20058;-68
2021/05/09 06:21:36;;;;;;;5.05;1.90;;;;;;;17.68;54.86;100177.28;5024841;28;20054;-69
2021/05/09 06:24:03;;;;;;;7.00;2.00;;;;;;;17.71;54.89;100179.75;5023466;28;20053;-69
2021/05/09 06:26:29;;;;;;;5.65;1.75;;;;;;;17.82;54.45;100174.69;5023164;28;20111;-69
2021/05/09 06:28:56;;;;;;;5.65;1.90;;;;;;;17.89;54.06;100172.56;5018134;28;20049;-69
2021/05/09 06:31:21;;;;;;;5.15;1.90;;;;;;;18.01;54.15;100166.63;5019192;28;20054;-69
2021/05/09 06:33:47;;;;;;;6.90;1.92;;;;;;;18.16;54.06;100166.63;5014136;28;20127;-69
2021/05/09 06:36:13;;;;;;;3.88;1.98;;;;;;;18.16;54.14;100175.38;5017820;28;20107;-68
2021/05/09 06:38:40;;;;;;;4.30;2.00;;;;;;;18.23;53.32;100169.72;5018151;28;20072;-69
2021/05/09 06:41:06;;;;;;;3.25;1.45;;;;;;;18.12;53.26;100168.59;5026316;28;20045;-69
2021/05/09 06:43:32;;;;;;;6.18;2.00;;;;;;;18.07;53.53;100165.38;5024027;28;20452;-69
2021/05/09 06:46:00;;;;;;;4.80;2.20;;;;;;;18.15;53.24;100162.28;5024511;28;20092;-69
2021/05/09 06:48:26;;;;;;;5.15;1.75;;;;;;;18.15;53.59;100157.03;5023732;28;20132;-68
2021/05/09 06:50:52;;;;;;;4.55;2.15;;;;;;;18.21;53.63;100151.41;5019040;28;20053;-70
2021/05/09 06:53:18;;;;;;;5.80;1.77;;;;;;;18.21;53.88;100140.88;5016461;28;20054;-69
2021/05/09 06:55:45;;;;;;;11.00;1.73;;;;;;;18.15;53.87;100146.50;5026627;28;20042;-68
2021/05/09 06:58:12;;;;;;;6.05;1.50;;;;;;;18.23;54.00;100141.59;5017881;28;20053;-69
2021/05/09 07:00:37;;;;;;;3.28;1.50;;;;;;;18.29;53.63;100130.72;5013811;28;20461;-69
2021/05/09 07:03:05;;;;;;;3.72;1.70;;;;;;;18.31;53.56;100133.25;5020486;28;20136;-70
2021/05/09 07:05:31;;;;;;;6.85;1.95;;;;;;;18.27;53.28;100137.00;5016896;28;20107;-69
2021/05/09 07:07:58;;;;;;;4.10;1.42;;;;;;;18.22;53.57;100141.72;5019039;28;20080;-70
2021/05/09 07:10:25;;;;;;;5.43;1.77;;;;;;;18.38;53.23;100144.25;5021136;28;20049;-69
2021/05/09 07:12:52;;;;;;;5.05;1.60;;;;;;;18.33;53.50;100134.84;5023344;28;20107;-70
2021/05/09 07:15:24;;;;;;;3.78;1.50;;;;;;;18.46;53.81;100121.78;5022345;28;20065;-69
2021/05/09 07:17:55;;;;;;;6.50;1.80;;;;;;;18.53;53.30;100124.03;5024033;28;20057;-68
2021/05/09 07:20:22;;;;;;;4.22;1.50;;;;;;;18.64;53.17;100113.66;5022177;28;20133;-70
2021/05/09 07:22:53;;;;;;;4.57;1.60;;;;;;;18.74;53.18;100111.28;5025691;28;20118;-70
2021/05/09 07:25:19;;;;;;;4.35;1.73;;;;;;;18.75;53.54;100105.06;5016214;28;20045;-69
2021/05/09 07:27:45;;;;;;;3.92;1.70;;;;;;;19.01;51.86;100113.13;5023180;28;20052;-68
2021/05/09 07:30:12;;;;;;;4.05;1.42;;;;;;;18.99;52.88;100102.66;5020723;28;20504;-69
2021/05/09 07:32:38;;;;;;;4.65;1.35;;;;;;;19.07;52.62;100099.53;5020422;28;20487;-69
2021/05/09 07:35:04;;;;;;;5.97;1.67;;;;;;;19.23;53.19;100096.75;5025247;28;20049;-68
2021/05/09 07:37:31;;;;;;;6.60;1.63;;;;;;;19.21;54.00;100099.50;5016127;28;20049;-68
2021/05/09 07:39:57;;;;;;;4.40;1.90;;;;;;;19.36;52.47;100102.91;5008902;28;20129;-67
2021/05/09 07:42:23;;;;;;;4.75;2.00;;;;;;;19.41;52.68;100110.50;5018638;28;20095;-73
2021/05/09 07:44:53;;;;;;;3.83;1.40;;;;;;;19.49;52.44;100105.56;5019411;28;20046;-67
2021/05/09 07:47:19;;;;;;;4.40;1.60;;;;;;;19.77;50.75;100110.75;5019071;28;20060;-66
2021/05/09 07:49:45;;;;;;;3.97;1.50;;;;;;;19.81;51.64;100102.56;5017484;28;20160;-67
2021/05/09 07:52:11;;;;;;;5.35;1.50;;;;;;;19.92;50.06;100090.41;5022345;28;20168;-69
2021/05/09 07:54:38;;;;;;;6.63;2.13;;;;;;;19.90;51.22;100079.97;5023394;28;20053;-68
2021/05/09 07:57:05;;;;;;;4.65;1.63;;;;;;;20.03;50.06;100077.31;5020448;28;20499;-69
2021/05/09 07:59:32;;;;;;;4.43;1.58;;;;;;;20.15;49.88;100067.72;5024864;28;20042;-70
2021/05/09 08:01:58;;;;;;;7.03;1.45;;;;;;;20.31;48.69;100062.19;5020185;28;20053;-70
2021/05/09 08:04:24;;;;;;;3.75;1.50;;;;;;;20.23;49.33;100059.22;5027843;28;20053;-70
2021/05/09 08:06:50;;;;;;;5.78;1.55;;;;;;;20.28;49.03;100062.41;5026471;28;20461;-71
2021/05/09 08:09:16;;;;;;;2.70;1.08;;;;;;;20.21;49.45;100050.59;5024426;28;20414;-70
2021/05/09 08:11:42;;;;;;;3.15;1.13;;;;;;;20.21;49.29;100058.53;5030080;28;20594;-69
2021/05/09 08:14:08;;;;;;;4.90;1.50;;;;;;;20.22;48.83;100054.91;5029535;28;20065;-70
2021/05/09 08:16:34;;;;;;;6.53;1.45;;;;;;;20.29;48.48;100057.00;5024292;28;20056;-70
2021/05/09 08:19:00;;;;;;;4.00;1.35;;;;;;;20.45;49.37;100048.00;5022781;28;21307;-69
2021/05/09 08:21:26;;;;;;;12.77;1.70;;;;;;;20.68;48.15;100038.41;5021180;28;20053;-66
2021/05/09 08:23:52;;;;;;;5.22;1.70;;;;;;;20.79;48.13;100025.28;5026041;28;20048;-66
2021/05/09 08:26:18;;;;;;;4.20;1.35;;;;;;;20.85;48.44;100023.13;5021159;28;20053;-68
2021/05/09 08:28:45;;;;;;;3.42;1.50;;;;;;;21.02;48.01;100025.34;5020660;28;20080;-69
2021/05/09 08:31:13;;;;;;;10.73;1.63;;;;;;;21.05;47.82;100011.91;5017839;28;20081;-67
2021/05/09 08:33:39;;;;;;;10.13;2.08;;;;;;;20.92;48.44;100016.41;5018244;28;20050;-68
2021/05/09 08:36:05;;;;;;;4.20;1.23;;;;;;;21.02;48.19;100008.66;5027073;28;20096;-68
2021/05/09 08:38:31;;;;;;;4.25;1.88;;;;;;;20.95;47.53;100006.50;5020033;28;20096;-67
2021/05/09 08:40:58;;;;;;;6.10;1.63;;;;;;;20.84;48.81;100000.28;5021676;28;20127;-70
2021/05/09 08:43:24;;;;;;;3.67;1.38;;;;;;;20.71;49.56;100005.63;5018208;28;20408;-68
2021/05/09 08:45:51;;;;;;;5.72;1.45;;;;;;;20.80;49.08;99991.75;5018545;28;20487;-67
2021/05/09 08:48:19;;;;;;;3.38;1.40;;;;;;;20.86;49.46;99982.53;5023576;28;20045;-67
2021/05/09 08:50:46;;;;;;;5.70;1.58;;;;;;;21.00;49.34;99990.28;5014460;28;20463;-67
2021/05/09 08:53:16;;;;;;;4.07;1.63;;;;;;;21.21;48.94;99974.56;5022885;28;20065;-66
2021/05/09 08:55:42;;;;;;;5.43;1.45;;;;;;;21.31;48.61;99971.22;5028485;28;20054;-68
2021/05/09 08:58:09;;;;;;;4.90;1.67;;;;;;;21.47;48.67;99965.59;5025610;28;20068;-67
2021/05/09 09:00:35;;;;;;;5.70;1.40;;;;;;;21.65;48.31;99964.19;5022306;28;20050;-68
2021/05/09 09:03:03;;;;;;;5.00;1.80;;;;;;;21.65;49.13;99966.00;5030149;28;20566;-67
2021/05/09 09:05:38;;;;;;;4.05;1.98;;;;;;;21.74;49.38;99960.00;5025580;28;20065;-67
2021/05/09 09:08:04;;;;;;;;;;;;;;;21.92;48.55;99957.66;5023970;28;20045;-67
2021/05/09 09:10:33;;;;;;;4.68;1.60;;;;;;;22.11;48.91;99948.28;5026948;28;19925;-67
2021/05/09 09:13:00;;;;;;;4.20;1.92;;;;;;;22.13;48.38;99952.47;5026626;28;20081;-67
2021/05/09 09:15:55;;;;;;;4.90;1.50;;;;;;;22.42;47.34;99945.78;5028466;28;20100;-68
2021/05/09 09:18:36;;;;;;;5.50;1.52;;;;;;;22.40;47.56;99960.97;5018680;28;20491;-68
2021/05/09 09:21:25;;;;;;;8.00;2.05;;;;;;;22.33;47.47;99955.31;5026296;28;20045;-67
2021/05/09 09:23:53;;;;;;;6.68;2.08;;;;;;;22.44;46.29;99947.38;5024023;28;20049;-67
2021/05/09 09:26:30;;;;;;;4.18;1.60;;;;;;;22.29;46.49;99944.13;5022464;28;20104;-68
2021/05/09 09:28:56;;;;;;;4.13;2.00;;;;;;;22.27;46.96;99934.59;5026044;28;20045;-67
2021/05/09 09:31:35;;;;;;;10.73;2.30;;;;;;;22.13;47.07;99935.72;5023180;28;20495;-67
2021/05/09 09:34:02;;;;;;;5.85;1.67;;;;;;;22.15;46.55;99939.09;5022079;28;20050;-66
2021/05/09 09:36:28;;;;;;;5.63;1.60;;;;;;;22.22;47.16;99937.63;5027598;28;20049;-67
2021/05/09 09:38:54;;;;;;;4.72;1.60;;;;;;;22.24;46.14;99933.03;5028157;28;20072;-67
2021/05/09 09:41:22;;;;;;;6.13;1.52;;;;;;;22.34;46.98;99928.69;5024747;28;20452;-66
2021/05/09 09:44:08;;;;;;;5.38;1.33;;;;;;;22.38;47.35;99925.78;5026714;28;20060;-67
2021/05/09 09:46:35;;;;;;;4.07;1.40;;;;;;;22.47;46.37;99917.94;5023886;28;20049;-68
2021/05/09 09:49:04;;;;;;;5.50;1.40;;;;;;;22.55;46.07;99917.31;5030118;28;20045;-67
2021/05/09 09:51:47;;;;;;;4.40;1.40;;;;;;;22.47;45.87;99912.63;5027952;28;20041;-64
2021/05/09 09:54:32;;;;;;;5.05;2.03;;;;;;;22.45;47.00;99905.78;5024805;28;20057;-67
2021/05/09 09:56:59;;;;;;;3.67;1.35;;;;;;;22.63;45.12;99909.56;5025512;28;20487;-67
2021/05/09 09:59:25;;;;;;;6.45;1.85;;;;;;;22.71;45.71;99903.63;5022466;28;20050;-67
2021/05/09 10:01:52;;;;;;;4.45;1.42;;;;;;;22.90;46.27;99905.56;5024670;28;20045;-65
2021/05/09 10:04:19;;;;;;;4.30;1.77;;;;;;;23.06;45.56;99910.38;5024499;28;20045;-68
2021/05/09 10:06:45;;;;;;;5.07;1.83;;;;;;;23.28;44.46;99914.75;5026160;28;20037;-68
2021/05/09 10:09:11;;;;;;;3.00;1.38;;;;;;;23.27;44.68;99918.38;5026398;28;20103;-67
2021/05/09 10:11:37;;;;;;;6.20;1.48;;;;;;;23.10;43.61;99914.47;5027095;28;20584;-68
2021/05/09 10:14:05;;;;;;;4.25;1.65;;;;;;;23.16;44.58;99917.59;5022573;28;20052;-67
2021/05/09 10:16:34;;;;;;;5.43;1.55;;;;;;;23.20;43.82;99916.38;5021087;28;20053;-67
2021/05/09 10:19:02;;;;;;;4.03;1.58;;;;;;;23.20;44.63;99917.22;5028057;28;20136;-67
2021/05/09 10:21:29;;;;;;;8.20;1.50;;;;;;;23.17;44.90;99909.50;5026607;28;20122;-67
2021/05/09 10:24:12;;;;;;;5.97;1.92;;;;;;;23.32;43.98;99911.81;5024751;28;20516;-67
2021/05/09 10:26:49;;;;;;;4.25;1.30;;;;;;;23.41;44.11;99909.22;5026621;28;20076;-67
2021/05/09 10:29:49;;;;;;;4.43;1.50;;;;;;;23.49;43.43;99903.25;5027459;28;20103;-67
2021/05/09 10:32:49;;;;;;;4.30;1.40;;;;;;;23.78;42.95;99897.19;5021063;28;20046;-68
2021/05/09 10:35:31;;;;;;;6.72;2.05;;;;;;;24.09;43.45;99899.78;5022462;28;20049;-68
2021/05/09 10:38:08;;;;;;;3.80;1.77;;;;;;;24.22;43.27;99895.03;5025125;28;20514;-67
2021/05/09 10:40:36;;;;;;;3.63;1.67;;;;;;;24.31;42.82;99890.72;5025155;28;20054;-67
2021/05/09 10:43:30;;;;;;;4.22;1.88;;;;;;;24.53;42.91;99886.91;5023195;28;20520;-67
2021/05/09 10:45:56;;;;;;;5.07;1.40;;;;;;;24.63;42.38;99886.06;4976357;28;20151;-68
2021/05/09 10:48:32;;;;;;;5.18;1.80;;;;;;;24.65;42.37;99878.78;5024184;28;20056;-67
2021/05/09 10:51:28;;;;;;;3.85;1.70;;;;;;;24.88;40.96;99870.53;5022896;28;20068;-68
2021/05/09 10:53:57;;;;;;;3.75;1.50;;;;;;;24.85;42.07;99869.00;5024961;28;20050;-68
2021/05/09 10:56:34;;;;;;;11.50;1.50;;;;;;;24.94;40.39;99862.81;5025834;28;20095;-68
2021/05/09 10:59:01;;;;;;;3.97;1.38;;;;;;;24.99;41.49;99867.72;5022707;28;20506;-68
2021/05/09 11:01:29;;;;;;;8.40;1.88;;;;;;;25.12;40.90;99862.88;5023321;28;20045;-68
2021/05/09 11:03:56;;;;;;;5.65;1.48;;;;;;;25.12;41.74;99854.91;5025029;28;20419;-66
2021/05/09 11:06:44;;;;;;;4.43;1.38;;;;;;;25.25;40.86;99853.72;5020318;28;20037;-68
2021/05/09 11:09:12;;;;;;;4.22;1.75;;;;;;;25.24;41.90;99852.91;5021093;28;20110;-69
2021/05/09 11:12:00;;;;;;;4.38;1.40;;;;;;;25.52;40.71;99847.63;5021714;28;20049;-68
2021/05/09 11:14:26;;;;;;;3.95;1.55;;;;;;;25.58;42.05;99843.53;5023173;28;20042;-67
2021/05/09 11:17:10;;;;;;;5.90;1.38;;;;;;;25.58;42.11;99839.03;5024625;28;20053;-67
2021/05/09 11:19:49;;;;;;;5.67;1.70;;;;;;;25.49;41.04;99820.44;5008629;28;20056;-68
2021/05/09 11:22:20;;;;;;;7.28;1.88;;;;;;;25.48;41.53;99826.75;5017448;28;20798;-67
2021/05/09 11:24:56;;;;;;;4.57;1.40;;;;;;;25.35;41.14;99827.91;5010631;28;20124;-68
2021/05/09 11:27:23;;;;;;;6.32;1.80;;;;;;;25.40;40.78;99830.16;5016148;28;20049;-67
2021/05/09 11:29:50;;;;;;;8.82;2.60;;;;;;;25.35;42.86;99827.91;5018431;28;20041;-69